Time;durP1;ratioP1;P1;durP2;ratioP2;P2;SDS_P1;SDS_P2;PMS_P1;PMS_P2;Temp;Humidity;BMP_temperature;BMP_pressure;BME280_temperature;BME280_humidity;BME280_pressure;Samples;Min_cycle;Max_cycle;Signal;HPM_P1;HPM_P2
2021/10/10 00:01:22;;;;;;;22.48;14.88;;;;;;;;;;4954882;29;20388;-80
2021/10/10 00:03:48;;;;;;;21.38;14.57;;;;;;;;;;4955123;29;20035;-81
2021/10/10 00:06:14;;;;;;;18.38;12.20;;;;;;;;;;4955667;29;20039;-80
2021/10/10 00:08:40;;;;;;;20.20;12.93;;;;;;;;;;4955573;29;20053;-81
2021/10/10 00:11:06;;;;;;;20.40;12.50;;;;;;;;;;4954942;29;20484;-81
2021/10/10 00:13:32;;;;;;;18.10;12.23;;;;;;;;;;4955605;29;20044;-80
2021/10/10 00:15:58;;;;;;;17.40;11.67;;;;;;;;;;4902582;29;1056845;-81
2021/10/10 00:18:24;;;;;;;23.50;13.45;;;;;;;;;;4957472;29;20651;-80
2021/10/10 00:20:50;;;;;;;26.15;13.57;;;;;;;;;;4965847;29;20044;-81
2021/10/10 00:23:16;;;;;;;23.60;13.55;;;;;;;;;;4970861;29;20039;-81
2021/10/10 00:25:42;;;;;;;23.77;14.75;;;;;;;;;;4959994;28;20552;-81
2021/10/10 00:28:08;;;;;;;24.40;14.23;;;;;;;;;;4942024;29;20035;-81
2021/10/10 00:30:34;;;;;;;26.40;16.10;;;;;;;;;;4940668;29;20385;-81
2021/10/10 00:33:00;;;;;;;21.92;14.43;;;;;;;;;;4957925;29;20102;-81
2021/10/10 00:35:26;;;;;;;25.83;15.65;;;;;;;;;;4943868;29;20035;-81
2021/10/10 00:37:52;;;;;;;23.83;16.23;;;;;;;;;;4944990;29;20036;-81
2021/10/10 00:40:18;;;;;;;24.00;16.40;;;;;;;;;;4962126;29;20362;-81
2021/10/10 00:42:44;;;;;;;21.40;14.77;;;;;;;;;;4961940;29;20404;-81
2021/10/10 00:45:10;;;;;;;22.48;14.38;;;;;;;;;;4947036;29;20055;-81
2021/10/10 00:47:37;;;;;;;24.88;14.13;;;;;;;;;;4961160;29;20087;-81
2021/10/10 00:50:04;;;;;;;24.25;14.35;;;;;;;;;;4961126;29;20465;-81
2021/10/10 00:52:30;;;;;;;23.10;15.48;;;;;;;;;;4961243;29;20031;-81
2021/10/10 00:54:57;;;;;;;24.67;15.45;;;;;;;;;;4961235;29;20109;-81
2021/10/10 00:57:24;;;;;;;21.83;13.30;;;;;;;;;;4959220;29;20036;-80
2021/10/10 00:59:52;;;;;;;20.25;13.85;;;;;;;;;;4959143;29;20463;-80
2021/10/10 01:02:18;;;;;;;24.08;13.27;;;;;;;;;;4959221;29;20031;-80
2021/10/10 01:04:44;;;;;;;22.58;13.25;;;;;;;;;;4960039;29;20039;-81
2021/10/10 01:07:10;;;;;;;26.95;15.68;;;;;;;;;;4960186;29;20035;-81
2021/10/10 01:09:37;;;;;;;23.80;15.30;;;;;;;;;;4959843;29;20031;-80
2021/10/10 01:12:04;;;;;;;24.80;14.15;;;;;;;;;;4960656;29;20757;-80
2021/10/10 01:14:30;;;;;;;20.65;14.10;;;;;;;;;;4959950;29;20035;-80
2021/10/10 01:16:56;;;;;;;21.25;14.23;;;;;;;;;;4960380;29;20109;-81
2021/10/10 01:19:22;;;;;;;23.80;14.95;;;;;;;;;;4959893;29;20365;-81
2021/10/10 01:21:48;;;;;;;22.55;15.25;;;;;;;;;;4942333;29;20489;-80
2021/10/10 01:24:14;;;;;;;25.77;14.68;;;;;;;;;;4942488;29;20090;-80
2021/10/10 01:26:40;;;;;;;22.13;14.95;;;;;;;;;;4958441;29;20050;-81
2021/10/10 01:29:06;;;;;;;24.88;14.30;;;;;;;;;;4942653;29;20042;-81
2021/10/10 01:31:32;;;;;;;21.45;14.10;;;;;;;;;;4959472;29;20028;-80
2021/10/10 01:33:58;;;;;;;21.10;14.30;;;;;;;;;;4959583;29;20043;-81
2021/10/10 01:36:24;;;;;;;20.85;13.70;;;;;;;;;;4959411;29;20512;-80
2021/10/10 01:38:50;;;;;;;18.95;12.68;;;;;;;;;;4959131;29;20023;-80
2021/10/10 01:41:16;;;;;;;22.25;13.40;;;;;;;;;;4959764;29;20035;-80
2021/10/10 01:43:42;;;;;;;22.30;12.57;;;;;;;;;;4959953;29;20023;-81
2021/10/10 01:46:08;;;;;;;21.30;12.32;;;;;;;;;;4959745;28;20094;-81
2021/10/10 01:48:34;;;;;;;20.90;12.98;;;;;;;;;;4959380;29;20031;-81
2021/10/10 01:51:02;;;;;;;20.00;12.07;;;;;;;;;;4958740;29;20027;-81
2021/10/10 01:53:28;;;;;;;22.23;13.10;;;;;;;;;;4959814;29;20140;-81
2021/10/10 01:55:54;;;;;;;21.33;12.27;;;;;;;;;;4956908;29;20077;-81
2021/10/10 01:58:20;;;;;;;22.10;13.32;;;;;;;;;;4950294;29;20034;-81
2021/10/10 02:00:46;;;;;;;19.63;12.73;;;;;;;;;;4959046;29;20035;-81
2021/10/10 02:03:12;;;;;;;19.73;12.43;;;;;;;;;;4959552;29;20024;-80
2021/10/10 02:05:38;;;;;;;20.85;12.02;;;;;;;;;;4961391;29;20062;-80
2021/10/10 02:08:04;;;;;;;21.42;12.05;;;;;;;;;;4959787;29;20039;-79
2021/10/10 02:10:30;;;;;;;19.83;12.73;;;;;;;;;;4959196;29;20428;-79
2021/10/10 02:12:56;;;;;;;22.27;12.52;;;;;;;;;;4959235;29;20027;-79
2021/10/10 02:15:22;;;;;;;23.00;12.63;;;;;;;;;;4959526;29;20038;-79
2021/10/10 02:17:48;;;;;;;20.38;13.18;;;;;;;;;;4959806;29;20031;-79
2021/10/10 02:20:14;;;;;;;22.98;13.45;;;;;;;;;;4959707;29;20030;-79
2021/10/10 02:22:40;;;;;;;19.70;12.40;;;;;;;;;;4963786;29;20087;-79
2021/10/10 02:25:07;;;;;;;27.15;13.02;;;;;;;;;;4964162;29;20027;-79
2021/10/10 02:27:33;;;;;;;17.80;11.30;;;;;;;;;;4959880;29;20111;-80
2021/10/10 02:29:59;;;;;;;17.42;12.07;;;;;;;;;;4961426;29;20039;-79
2021/10/10 02:32:25;;;;;;;21.67;11.30;;;;;;;;;;4960284;29;20047;-80
2021/10/10 02:34:51;;;;;;;18.30;11.30;;;;;;;;;;4959843;29;20039;-80
2021/10/10 02:37:17;;;;;;;17.98;10.95;;;;;;;;;;4958226;29;20105;-80
2021/10/10 02:39:43;;;;;;;21.48;10.75;;;;;;;;;;4958780;29;20080;-80
2021/10/10 02:42:09;;;;;;;17.70;11.32;;;;;;;;;;4959313;29;20039;-80
2021/10/10 02:44:35;;;;;;;18.30;11.30;;;;;;;;;;4934183;29;20027;-80
2021/10/10 02:47:01;;;;;;;18.00;11.35;;;;;;;;;;4961041;29;20031;-80
2021/10/10 02:49:27;;;;;;;17.13;10.68;;;;;;;;;;4959710;29;20126;-80
2021/10/10 02:51:53;;;;;;;21.02;11.77;;;;;;;;;;4961610;29;20016;-80
2021/10/10 02:54:19;;;;;;;17.42;10.88;;;;;;;;;;4963643;29;20035;-79
2021/10/10 02:56:45;;;;;;;18.38;10.68;;;;;;;;;;4962295;28;20114;-79
2021/10/10 02:59:12;;;;;;;21.25;12.38;;;;;;;;;;4961226;29;20023;-80
2021/10/10 03:01:38;;;;;;;19.35;11.13;;;;;;;;;;4921039;29;20047;-80
2021/10/10 03:04:04;;;;;;;19.42;11.45;;;;;;;;;;4953299;29;20036;-79
2021/10/10 03:06:30;;;;;;;18.15;11.70;;;;;;;;;;4957758;29;20119;-79
2021/10/10 03:08:56;;;;;;;19.20;11.02;;;;;;;;;;4957957;29;20113;-80
2021/10/10 03:11:22;;;;;;;19.35;12.18;;;;;;;;;;4957170;29;20039;-79
2021/10/10 03:13:48;;;;;;;18.90;11.75;;;;;;;;;;4957869;29;20031;-80
2021/10/10 03:16:14;;;;;;;17.55;11.60;;;;;;;;;;4957966;29;20041;-80
2021/10/10 03:18:40;;;;;;;16.95;11.27;;;;;;;;;;4958193;29;20042;-79
2021/10/10 03:21:06;;;;;;;18.10;11.38;;;;;;;;;;4957249;29;20028;-80
2021/10/10 03:23:32;;;;;;;14.77;10.27;;;;;;;;;;4958182;29;20027;-79
2021/10/10 03:25:58;;;;;;;14.88;10.57;;;;;;;;;;4938361;29;20027;-80
2021/10/10 03:28:24;;;;;;;15.57;11.02;;;;;;;;;;4940075;29;20042;-79
2021/10/10 03:30:50;;;;;;;25.30;11.00;;;;;;;;;;4957136;29;20039;-80
2021/10/10 03:33:16;;;;;;;20.05;11.63;;;;;;;;;;4957449;29;20039;-79
2021/10/10 03:35:42;;;;;;;17.08;10.95;;;;;;;;;;4957414;29;20039;-79
2021/10/10 03:38:08;;;;;;;16.42;11.63;;;;;;;;;;4957033;29;20035;-79
2021/10/10 03:40:34;;;;;;;18.52;11.50;;;;;;;;;;4956665;29;20082;-80
2021/10/10 03:43:00;;;;;;;18.70;10.73;;;;;;;;;;4956761;29;20114;-79
2021/10/10 03:45:26;;;;;;;20.75;11.77;;;;;;;;;;4957773;29;20539;-79
2021/10/10 03:47:53;;;;;;;16.90;11.25;;;;;;;;;;4956826;29;20043;-79
2021/10/10 03:50:19;;;;;;;18.55;11.25;;;;;;;;;;4957339;29;20461;-79
2021/10/10 03:52:45;;;;;;;19.30;11.68;;;;;;;;;;4939774;29;20023;-80
2021/10/10 03:57:47;;;;;;;21.08;13.88;;;;;;;;;;4944836;29;20436;-80
2021/10/10 04:00:14;;;;;;;22.77;14.00;;;;;;;;;;4938546;29;20392;-79
2021/10/10 04:02:41;;;;;;;23.23;15.57;;;;;;;;;;4956678;29;20067;-79
2021/10/10 04:05:17;;;;;;;27.13;15.48;;;;;;;;;;4956721;29;20023;-79
2021/10/10 04:07:43;;;;;;;25.08;16.67;;;;;;;;;;4957097;29;20027;-79
2021/10/10 04:10:09;;;;;;;23.77;14.00;;;;;;;;;;4956257;28;20385;-79
2021/10/10 04:12:35;;;;;;;25.55;14.55;;;;;;;;;;4956945;29;20059;-79
2021/10/10 04:15:01;;;;;;;22.70;13.50;;;;;;;;;;4957302;29;20045;-79
2021/10/10 04:17:27;;;;;;;24.85;14.23;;;;;;;;;;4956881;29;20032;-79
2021/10/10 04:19:53;;;;;;;23.67;13.18;;;;;;;;;;4956597;29;20027;-79
2021/10/10 04:22:19;;;;;;;23.13;14.23;;;;;;;;;;4957149;29;20039;-80
2021/10/10 04:24:45;;;;;;;22.23;14.40;;;;;;;;;;4957984;29;20042;-80
2021/10/10 04:27:11;;;;;;;22.55;14.23;;;;;;;;;;4956075;29;20042;-79
2021/10/10 04:29:37;;;;;;;20.35;13.77;;;;;;;;;;4960456;29;20034;-79
2021/10/10 04:32:03;;;;;;;21.15;13.68;;;;;;;;;;4957710;29;20027;-80
2021/10/10 04:34:29;;;;;;;20.85;13.57;;;;;;;;;;4956792;29;20039;-80
2021/10/10 04:36:55;;;;;;;19.50;12.57;;;;;;;;;;4957210;29;20035;-79
2021/10/10 04:39:21;;;;;;;22.67;13.32;;;;;;;;;;4957065;29;20043;-79
2021/10/10 04:41:47;;;;;;;22.27;13.32;;;;;;;;;;4956937;29;20408;-79
2021/10/10 04:44:13;;;;;;;23.58;13.30;;;;;;;;;;4957269;29;20039;-80
2021/10/10 04:46:39;;;;;;;26.50;15.02;;;;;;;;;;4940363;29;20042;-80
2021/10/10 04:49:05;;;;;;;23.52;14.95;;;;;;;;;;4957389;29;20070;-80
2021/10/10 04:51:31;;;;;;;24.90;15.40;;;;;;;;;;4957520;29;20036;-80
2021/10/10 04:53:57;;;;;;;25.42;15.40;;;;;;;;;;4965413;29;20091;-80
2021/10/10 04:56:24;;;;;;;23.90;14.23;;;;;;;;;;4968934;29;20048;-79
2021/10/10 04:58:49;;;;;;;24.95;15.35;;;;;;;;;;4968687;29;20035;-79
2021/10/10 05:01:15;;;;;;;20.00;13.32;;;;;;;;;;4968671;29;20493;-79
2021/10/10 05:03:41;;;;;;;24.38;13.70;;;;;;;;;;4969037;29;20039;-79
2021/10/10 05:06:08;;;;;;;22.10;14.05;;;;;;;;;;4954666;29;20516;-79
2021/10/10 05:08:34;;;;;;;22.58;14.13;;;;;;;;;;4954746;29;20042;-79
2021/10/10 05:11:00;;;;;;;22.95;14.38;;;;;;;;;;4953970;29;20043;-79
2021/10/10 05:13:26;;;;;;;22.83;14.77;;;;;;;;;;4955187;29;20099;-79
2021/10/10 05:15:52;;;;;;;23.13;14.25;;;;;;;;;;4955406;29;20031;-79
2021/10/10 05:18:18;;;;;;;22.38;13.98;;;;;;;;;;4955225;29;20038;-79
2021/10/10 05:20:44;;;;;;;23.25;14.15;;;;;;;;;;4979450;28;20035;-79
2021/10/10 05:23:14;;;;;;;22.33;14.25;;;;;;;;;;4981902;28;20023;-79
2021/10/10 05:25:40;;;;;;;22.00;13.02;;;;;;;;;;4961826;29;20036;-79
2021/10/10 05:28:06;;;;;;;23.85;13.32;;;;;;;;;;4959618;29;20106;-80
2021/10/10 05:30:32;;;;;;;24.35;13.05;;;;;;;;;;4959282;29;20531;-79
2021/10/10 05:32:59;;;;;;;20.95;12.70;;;19.10;99.90;;;;;;4959351;29;20049;-79
2021/10/10 05:35:24;;;;;;;18.30;12.77;;;3.90;99.90;;;;;;4960222;29;20039;-79
2021/10/10 05:37:50;;;;;;;24.00;12.75;;;3.20;99.90;;;;;;4960014;29;20094;-79
2021/10/10 05:40:15;;;;;;;18.92;12.85;;;3.10;99.90;;;;;;4959656;29;20408;-79
2021/10/10 05:42:41;;;;;;;19.38;12.27;;;3.10;99.90;;;;;;4959901;29;20066;-79
2021/10/10 05:45:07;;;;;;;19.05;12.45;;;3.00;99.90;;;;;;4960070;29;20034;-79
2021/10/10 05:47:33;;;;;;;19.23;11.93;;;3.10;99.90;;;;;;4959949;29;20035;-79
2021/10/10 05:49:58;;;;;;;20.50;11.95;;;2.80;99.90;;;;;;4959128;29;20083;-79
2021/10/10 05:52:26;;;;;;;19.40;12.00;;;2.80;99.90;;;;;;4959172;29;20042;-80
2021/10/10 05:54:52;;;;;;;18.10;11.93;;;;;;;;;;4959407;29;20027;-79
2021/10/10 05:57:21;;;;;;;19.92;13.18;;;;;;;;;;4946014;29;20042;-79
2021/10/10 05:59:48;;;;;;;26.48;13.65;;;;;;;;;;4958352;29;20031;-79
2021/10/10 06:02:14;;;;;;;26.23;13.35;;;;;;;;;;4959332;29;20031;-79
2021/10/10 06:04:40;;;;;;;20.83;13.75;;;;;;;;;;4959166;29;20515;-79
2021/10/10 06:07:06;;;;;;;20.27;11.73;;;;;;;;;;4959465;29;20079;-80
2021/10/10 06:09:32;;;;;;;20.52;13.32;;;;;;;;;;4959357;29;20031;-79
2021/10/10 06:11:58;;;;;;;22.75;13.38;;;;;;;;;;4959380;29;20850;-79
2021/10/10 06:14:24;;;;;;;21.60;13.05;;;;;;;;;;4958993;29;20027;-79
2021/10/10 06:16:50;;;;;;;21.45;13.02;;;;;;;;;;4959303;29;20050;-79
2021/10/10 06:19:16;;;;;;;21.42;13.63;;;;;;;;;;4959959;29;20032;-79
2021/10/10 06:21:42;;;;;;;23.85;13.75;;;;;;;;;;4958978;29;20035;-79
2021/10/10 06:24:08;;;;;;;22.05;13.65;;;;;;;;;;4941870;29;20082;-79
2021/10/10 06:26:34;;;;;;;25.58;14.82;;;;;;;;;;4952278;29;20074;-79
2021/10/10 06:29:00;;;;;;;22.70;14.13;;;;;;;;;;4940670;29;20059;-79
2021/10/10 06:31:26;;;;;;;23.55;14.35;;;;;;;;;;4958434;28;20034;-79
2021/10/10 06:33:52;;;;;;;24.67;14.93;;;;;;;;;;4959438;29;20158;-79
2021/10/10 06:36:21;;;;;;;28.63;16.15;;;;;;;;;;4942064;29;20063;-79
2021/10/10 06:38:50;;;;;;;22.90;15.85;;;;;;;;;;4942820;29;20035;-79
2021/10/10 06:41:16;;;;;;;25.50;17.48;;;;;;;;;;4945321;29;20031;-78
2021/10/10 06:43:42;;;;;;;26.05;16.95;;;;;;;;;;4946962;29;20047;-80
2021/10/10 06:46:08;;;;;;;29.52;17.73;;;;;;;;;;4979374;29;20032;-79
2021/10/10 06:48:34;;;;;;;25.88;16.38;;;;;;;;;;4978147;29;20032;-79
2021/10/10 06:51:00;;;;;;;30.75;18.33;;;;;;;;;;4959063;29;20033;-79
2021/10/10 06:53:26;;;;;;;27.77;17.48;;;;;;;;;;4977520;29;20035;-80
2021/10/10 06:55:52;;;;;;;29.27;18.20;;;;;;;;;;4959856;29;20051;-80
2021/10/10 06:58:19;;;;;;;24.90;16.70;;;;;;;;;;4944418;29;20042;-80
2021/10/10 07:00:45;;;;;;;30.25;16.38;;;;;;;;;;4959103;29;20089;-80
2021/10/10 07:03:11;;;;;;;26.17;15.68;;;;;;;;;;4959074;29;20031;-80
2021/10/10 07:05:37;;;;;;;19.77;13.90;;;;;;;;;;4959228;29;20046;-80
2021/10/10 07:08:03;;;;;;;24.63;14.20;;;2.60;99.90;;;;;;4959289;29;20090;-80
2021/10/10 07:10:29;;;;;;;20.52;13.43;;;;;;;;;;4967659;29;20500;-79
2021/10/10 07:12:55;;;;;;;19.35;13.35;;;;;;;;;;4970537;29;20031;-80
2021/10/10 07:15:21;;;;;;;22.52;13.30;;;5.00;99.90;;;;;;4966518;29;20126;-80
2021/10/10 07:17:48;;;;;;;21.30;12.95;;;5.60;99.90;;;;;;4958093;29;20038;-79
2021/10/10 07:20:20;;;;;;;19.60;12.23;;;5.40;99.90;;;;;;4958863;29;20027;-79
2021/10/10 07:22:57;;;;;;;18.20;12.33;;;5.60;99.90;;;;;;4943119;29;20028;-79
2021/10/10 07:25:23;;;;;;;20.02;12.15;;;8.10;99.90;;;;;;4959242;29;20038;-79
2021/10/10 07:27:48;;;;;;;22.92;12.75;;;5.70;99.90;;;;;;4941554;29;20065;-79
2021/10/10 07:30:15;;;;;;;19.45;11.93;;;5.80;99.90;;;;;;4952598;29;20118;-79
2021/10/10 07:32:41;;;;;;;22.98;11.40;;;7.70;99.90;;;;;;4959092;29;20683;-79
2021/10/10 07:35:08;;;;;;;18.63;11.55;;;6.40;99.90;;;;;;4958180;29;20027;-79
2021/10/10 07:37:34;;;;;;;21.77;10.30;;;6.20;99.90;;;;;;4959059;29;20026;-80
2021/10/10 07:40:02;;;;;;;17.25;11.82;;;7.10;99.90;;;;;;4958279;29;20035;-79
2021/10/10 07:42:28;;;;;;;16.48;11.02;;;5.30;99.90;;;;;;4941276;29;20023;-79
2021/10/10 07:44:57;;;;;;;17.13;10.35;;;6.70;99.90;;;;;;4958304;28;20032;-79
2021/10/10 07:49:49;;;;;;;21.83;10.82;;;;;;;;;;4958114;29;20028;-79
2021/10/10 07:52:15;;;;;;;20.52;11.70;;;6.70;99.90;;;;;;4958541;29;20055;-79
2021/10/10 07:54:41;;;;;;;15.27;10.68;;;7.00;99.90;;;;;;4959462;29;20139;-79
2021/10/10 07:57:07;;;;;;;19.67;10.82;;;;;;;;;;4946423;29;20035;-79
2021/10/10 07:59:33;;;;;;;16.48;10.10;;;;;;;;;;4945989;29;20381;-79
2021/10/10 08:02:00;;;;;;;16.10;9.80;;;;;;;;;;4958090;29;20031;-79
2021/10/10 08:04:27;;;;;;;18.92;10.20;;;;;;;;;;4958424;29;20519;-80
2021/10/10 08:06:53;;;;;;;15.25;10.02;;;;;;;;;;4942584;29;20042;-79
2021/10/10 08:09:19;;;;;;;17.73;10.77;;;;;;;;;;4959534;29;20038;-79
2021/10/10 08:11:45;;;;;;;17.15;9.80;;;;;;;;;;4946495;29;20031;-80
2021/10/10 08:14:12;;;;;;;14.98;9.98;;;;;;;;;;4964083;29;20086;-79
2021/10/10 08:16:39;;;;;;;16.30;10.02;;;;;;;;;;4958991;29;20385;-80
2021/10/10 08:19:05;;;;;;;16.13;9.45;;;;;;;;;;4959418;29;20473;-79
2021/10/10 08:21:31;;;;;;;14.93;9.60;;;;;;;;;;4958709;29;20032;-80
2021/10/10 08:23:58;;;;;;;20.05;9.75;;;;;;;;;;4958840;29;20202;-79
2021/10/10 08:26:24;;;;;;;13.63;9.23;;;;;;;;;;4957901;29;20031;-80
2021/10/10 08:28:50;;;;;;;13.02;8.65;;;;;;;;;;4941657;29;20062;-80
2021/10/10 08:31:16;;;;;;;14.18;9.27;;;;;;;;;;4958234;29;20540;-80
2021/10/10 08:33:42;;;;;;;17.20;9.00;;;;;;;;;;4959603;29;20038;-80
2021/10/10 08:36:08;;;;;;;16.95;8.88;;;;;;;;;;4958178;29;20031;-80
2021/10/10 08:38:35;;;;;;;15.70;9.30;;;;;;;;;;4941093;29;20020;-80
2021/10/10 08:41:02;;;;;;;12.07;8.88;;;;;;;;;;4959085;29;20030;-80
2021/10/10 08:43:30;;;;;;;14.13;8.68;;;;;;;;;;4959451;29;20401;-80
2021/10/10 08:45:59;;;;;;;13.50;8.13;;;;;;;;;;4941954;29;20031;-80
2021/10/10 08:48:26;;;;;;;13.13;8.02;;;;;;;;;;4959516;29;20027;-79
2021/10/10 08:50:54;;;;;;;14.95;8.30;;;;;;;;;;4964238;29;20031;-79
2021/10/10 08:53:21;;;;;;;13.32;8.38;;;;;;;;;;4965660;29;20094;-80
2021/10/10 08:55:48;;;;;;;12.30;8.27;;;;;;;;;;4960037;28;20401;-80
2021/10/10 08:58:16;;;;;;;13.38;7.75;;;;;;;;;;4942629;29;20110;-80
2021/10/10 09:00:48;;;;;;;13.63;8.18;;;;;;;;;;4964365;29;20019;-80
2021/10/10 09:03:14;;;;;;;12.60;7.45;;;;;;;;;;4964798;29;20027;-80
2021/10/10 09:05:41;;;;;;;10.35;7.30;;;;;;;;;;4964525;29;20027;-80
2021/10/10 09:08:07;;;;;;;12.43;7.05;;;;;;;;;;4964661;29;20031;-80
2021/10/10 09:10:33;;;;;;;19.20;7.93;;;;;;;;;;4947075;29;20503;-81
2021/10/10 09:13:10;;;;;;;12.68;7.40;;;;;;;;;;4963630;29;20062;-80
2021/10/10 09:15:37;;;;;;;13.23;7.30;;;;;;;;;;4962932;29;20086;-81
2021/10/10 09:18:04;;;;;;;13.02;7.82;;;;;;;;;;4963687;29;20026;-81
2021/10/10 09:20:30;;;;;;;12.10;7.60;;;;;;;;;;4962623;29;20019;-80
2021/10/10 09:22:56;;;;;;;12.40;7.40;;;;;;;;;;4965239;29;20066;-80
2021/10/10 09:25:22;;;;;;;15.70;7.80;;;;;;;;;;4963868;29;20034;-80
2021/10/10 09:27:49;;;;;;;13.88;7.70;;;;;;;;;;4962038;29;20575;-81
2021/10/10 09:30:17;;;;;;;12.52;7.72;;;;;;;;;;4947003;29;20115;-81
2021/10/10 09:32:44;;;;;;;13.68;7.78;;;;;;;;;;4949539;29;20039;-81
2021/10/10 09:35:28;;;;;;;14.73;7.65;;;;;;;;;;4963969;29;20456;-81
2021/10/10 09:38:14;;;;;;;13.93;7.65;;;;;;;;;;4964841;29;20023;-81
2021/10/10 09:40:49;;;;;;;16.77;7.85;;;;;;;;;;4964159;29;20024;-81
2021/10/10 09:43:15;;;;;;;9.50;7.07;;;;;;;;;;4950009;29;20036;-81
2021/10/10 09:45:53;;;;;;;14.35;7.25;;;;;;;;;;4965638;29;20105;-81
2021/10/10 09:48:30;;;;;;;19.50;8.45;;;;;;;;;;4966694;29;20046;-81
2021/10/10 09:50:56;;;;;;;13.95;7.07;;;;;;;;;;4930788;29;20039;-81
2021/10/10 09:53:29;;;;;;;14.75;8.60;;;;;;;;;;4954004;29;20031;-81
2021/10/10 09:55:57;;;;;;;14.02;7.57;;;;;;;;;;4963855;29;20032;-82
2021/10/10 09:58:36;;;;;;;11.50;6.53;;;;;;;;;;4950213;29;20027;-82
2021/10/10 10:01:31;;;;;;;11.98;7.07;;;;;;;;;;4958747;29;20038;-83
2021/10/10 10:03:58;;;;;;;14.57;7.57;;;;;;;;;;4949194;29;20027;-82
2021/10/10 10:06:27;;;;;;;16.17;6.68;;;;;;;;;;4960206;28;20031;-82
2021/10/10 10:08:53;;;;;;;20.65;10.93;;;;;;;;;;4959789;29;20034;-82
2021/10/10 10:11:19;;;;;;;15.27;7.05;;;;;;;;;;4961611;29;20027;-82
2021/10/10 10:13:46;;;;;;;12.60;6.75;;;;;;;;;;4943293;29;20034;-83
2021/10/10 10:16:13;;;;;;;10.55;6.60;;;;;;;;;;4960344;29;20128;-82
2021/10/10 10:18:41;;;;;;;11.95;6.88;;;;;;;;;;4960850;29;20031;-82
2021/10/10 10:21:08;;;;;;;8.75;6.75;;;;;;;;;;4960612;29;20059;-82
2021/10/10 10:23:35;;;;;;;16.67;7.90;;;;;;;;;;4961404;29;20155;-82
2021/10/10 10:26:02;;;;;;;10.27;6.50;;;;;;;;;;4959896;29;20114;-82
2021/10/10 10:28:28;;;;;;;11.20;5.68;;;;;;;;;;4960816;29;20035;-83
2021/10/10 10:30:55;;;;;;;8.75;5.88;;;;;;;;;;4959688;29;20090;-82
2021/10/10 10:33:21;;;;;;;9.63;6.07;;;;;;;;;;4960407;29;20078;-82
2021/10/10 10:35:48;;;;;;;9.32;5.93;;;;;;;;;;4960526;29;20037;-82
2021/10/10 10:38:14;;;;;;;11.63;6.15;;;;;;;;;;4960084;29;20066;-82
2021/10/10 10:40:41;;;;;;;9.35;6.05;;;;;;;;;;4959585;29;20023;-83
2021/10/10 10:43:08;;;;;;;10.57;6.20;;;;;;;;;;4960370;29;20031;-82
2021/10/10 10:45:37;;;;;;;8.80;6.05;;;;;;;;;;4960228;29;20031;-82
2021/10/10 10:48:07;;;;;;;9.98;6.15;;;;;;;;;;4960601;29;20039;-82
2021/10/10 10:50:37;;;;;;;8.93;5.82;;;;;;;;;;4960340;29;20077;-82
2021/10/10 10:53:03;;;;;;;10.15;5.85;;;;;;;;;;4960840;29;20033;-83
2021/10/10 10:55:29;;;;;;;10.50;6.00;;;;;;;;;;4959963;29;20495;-83
2021/10/10 10:57:56;;;;;;;8.30;5.97;;;;;;;;;;4963409;29;20038;-82
2021/10/10 11:00:24;;;;;;;9.23;5.45;;;;;;;;;;4970990;29;20047;-82
2021/10/10 11:02:59;;;;;;;16.13;6.70;;;;;;;;;;4970683;29;20028;-82
2021/10/10 11:05:31;;;;;;;9.30;5.43;;;;;;;;;;4959939;29;20035;-82
2021/10/10 11:07:57;;;;;;;10.35;5.75;;;;;;;;;;4959230;29;20078;-82
2021/10/10 11:10:23;;;;;;;9.50;5.43;;;;;;;;;;4958864;29;20109;-82
2021/10/10 11:13:15;;;;;;;11.13;6.15;;;;;;;;;;4959609;29;20039;-82
2021/10/10 11:15:55;;;;;;;11.80;6.15;;;;;;;;;;4958860;29;20407;-82
2021/10/10 11:18:22;;;;;;;11.30;5.50;;;;;;;;;;4921046;29;20088;-82
2021/10/10 11:20:49;;;;;;;10.35;5.63;;;;;;;;;;4954626;29;20481;-82
2021/10/10 11:23:15;;;;;;;11.73;5.75;;;;;;;;;;4959064;29;20031;-82
2021/10/10 11:25:42;;;;;;;9.85;5.68;;;;;;;;;;4956377;29;20500;-82
2021/10/10 11:28:08;;;;;;;12.52;5.82;;;;;;;;;;4959569;29;20085;-82
2021/10/10 11:30:34;;;;;;;9.95;5.75;;;;;;;;;;4964567;29;20035;-82
2021/10/10 11:33:00;;;;;;;11.30;6.15;;;;;;;;;;4965920;29;20030;-82
2021/10/10 11:35:26;;;;;;;13.27;6.22;;;;;;;;;;4941707;29;20039;-82
2021/10/10 11:37:59;;;;;;;7.53;5.88;;;;;;;;;;4923867;29;20130;-82
2021/10/10 11:40:25;;;;;;;10.90;5.53;;;;;;;;;;4956719;29;20023;-82
2021/10/10 11:42:54;;;;;;;9.95;5.68;;;;;;;;;;4956461;29;20035;-82
2021/10/10 11:45:23;;;;;;;10.60;6.18;;;;;;;;;;4956612;29;20035;-82
2021/10/10 11:47:53;;;;;;;11.98;6.30;;;;;;;;;;4956738;29;20043;-82
2021/10/10 11:50:19;;;;;;;11.40;5.97;;;;;;;;;;4955825;29;20032;-82
2021/10/10 11:53:02;;;;;;;8.38;5.32;;;;;;;;;;4956110;29;20027;-82
2021/10/10 11:55:43;;;;;;;9.18;6.18;;;;;;;;;;4956089;29;20027;-82
2021/10/10 11:58:12;;;;;;;8.98;5.78;;;;;;;;;;4949930;29;20031;-82
2021/10/10 12:00:39;;;;;;;9.65;5.90;;;;;;;;;;4955850;29;20106;-82
2021/10/10 12:03:08;;;;;;;9.35;5.95;;;;;;;;;;4956123;29;20035;-82
2021/10/10 12:05:43;;;;;;;10.68;6.43;;;;;;;;;;4955884;29;20038;-82
2021/10/10 12:08:16;;;;;;;10.98;6.35;;;;;;;;;;4938855;29;20059;-82
2021/10/10 12:10:45;;;;;;;10.68;6.55;;;;;;;;;;4942664;29;20083;-82
2021/10/10 12:13:11;;;;;;;9.38;5.78;;;;;;;;;;4968297;29;20034;-82
2021/10/10 12:15:37;;;;;;;9.82;6.18;;;;;;;;;;4967322;29;20042;-82
2021/10/10 12:18:09;;;;;;;10.65;6.30;;;;;;;;;;4970432;29;20043;-81
2021/10/10 12:20:36;;;;;;;9.20;5.60;;;;;;;;;;4942002;29;20095;-81
2021/10/10 12:23:06;;;;;;;11.45;5.88;;;;;;;;;;4959395;29;20023;-81
2021/10/10 12:25:34;;;;;;;12.13;6.20;;;;;;;;;;4959688;29;20031;-82
2021/10/10 12:28:01;;;;;;;10.00;6.03;;;;;;;;;;4956494;29;20043;-81
2021/10/10 12:30:40;;;;;;;10.63;6.57;;;;;;;;;;4958680;28;20031;-81
2021/10/10 12:33:22;;;;;;;11.35;5.30;;;;;;;;;;4963600;29;20039;-81
2021/10/10 12:35:57;;;;;;;13.07;5.85;;;;;;;;;;4965515;29;20027;-82
2021/10/10 12:38:30;;;;;;;9.95;6.32;;;;;;;;;;4963018;29;20484;-81
2021/10/10 12:40:56;;;;;;;9.55;5.65;;;;;;;;;;4962484;29;20023;-81
2021/10/10 12:43:34;;;;;;;9.00;5.47;;;;;;;;;;4963650;29;20085;-82
2021/10/10 12:46:01;;;;;;;9.68;5.60;;;;;;;;;;4962074;29;20027;-82
2021/10/10 12:48:27;;;;;;;10.63;6.38;;;;;;;;;;4946240;29;20126;-81
2021/10/10 12:50:56;;;;;;;10.25;5.30;;;;;;;;;;4961406;29;20034;-81
2021/10/10 12:53:26;;;;;;;11.65;5.97;;;;;;;;;;4944169;29;20043;-81
2021/10/10 12:56:11;;;;;;;11.52;5.75;;;;;;;;;;4943624;29;20035;-81
2021/10/10 12:58:46;;;;;;;7.45;5.60;;;;;;;;;;4963091;29;20030;-81
2021/10/10 13:01:12;;;;;;;9.30;6.30;;;;;;;;;;4961207;29;20031;-81
2021/10/10 13:03:38;;;;;;;8.27;5.25;;;;;;;;;;4962046;29;20035;-82
2021/10/10 13:06:04;;;;;;;11.38;5.72;;;;;;;;;;4962056;29;20122;-82
2021/10/10 13:08:30;;;;;;;9.23;5.55;;;;;;;;;;4965156;29;20500;-82
2021/10/10 13:10:56;;;;;;;10.68;5.70;;;;;;;;;;4965885;29;20038;-82
2021/10/10 13:13:22;;;;;;;10.95;5.30;;;;;;;;;;4964888;29;20127;-82
2021/10/10 13:15:48;;;;;;;10.07;5.88;;;;;;;;;;4963507;29;20068;-82
2021/10/10 13:18:14;;;;;;;12.52;5.85;;;;;;;;;;4960207;29;20518;-82
2021/10/10 13:20:40;;;;;;;10.45;5.22;;;;;;;;;;4946958;29;20077;-82
2021/10/10 13:23:06;;;;;;;7.20;4.70;;;;;;;;;;4962884;29;20027;-82
2021/10/10 13:25:32;;;;;;;10.80;5.70;;;;;;;;;;4962133;29;20114;-82
2021/10/10 13:27:58;;;;;;;8.95;5.70;;;;;;;;;;4963816;29;20082;-83
2021/10/10 13:30:26;;;;;;;10.35;5.50;;;;;;;;;;4963323;29;20114;-83
2021/10/10 13:32:52;;;;;;;13.48;5.70;;;;;;;;;;4962795;29;20512;-81
2021/10/10 13:35:18;;;;;;;8.52;5.28;;;;;;;;;;4962379;29;20041;-80
2021/10/10 13:37:44;;;;;;;8.98;5.43;;;;;;;;;;4945070;29;20027;-81
2021/10/10 13:40:10;;;;;;;10.18;5.15;;;;;;;;;;4962808;29;20066;-81
2021/10/10 13:42:36;;;;;;;9.93;5.13;;;;;;;;;;4945306;29;20634;-81
2021/10/10 13:45:02;;;;;;;10.88;4.68;;;;;;;;;;4963377;29;20684;-81
2021/10/10 13:47:28;;;;;;;11.80;5.80;;;;;;;;;;4962191;29;20031;-81
2021/10/10 13:49:54;;;;;;;9.93;5.30;;;;;;;;;;4943220;29;20040;-81
2021/10/10 13:52:20;;;;;;;8.43;4.88;;;;;;;;;;4961556;29;20070;-81
2021/10/10 13:54:47;;;;;;;9.60;5.03;;;;;;;;;;4962720;29;20045;-81
2021/10/10 13:57:13;;;;;;;12.10;5.15;;;;;;;;;;4960997;29;20400;-80
2021/10/10 13:59:39;;;;;;;9.73;5.20;;;;;;;;;;4963140;29;20433;-81
2021/10/10 14:02:06;;;;;;;9.85;5.30;;;;;;;;;;4964138;29;20086;-80
2021/10/10 14:04:31;;;;;;;10.13;5.03;;;;;;;;;;4962758;29;20035;-81
2021/10/10 14:06:57;;;;;;;10.43;5.30;;;;;;;;;;4963048;29;20374;-81
2021/10/10 14:09:24;;;;;;;14.07;5.03;;;;;;;;;;4965105;29;20031;-81
2021/10/10 14:11:49;;;;;;;11.52;5.28;;;;;;;;;;4949301;29;20066;-81
2021/10/10 14:14:15;;;;;;;9.77;5.05;;;;;;;;;;4964140;29;20031;-83
2021/10/10 14:16:42;;;;;;;8.70;5.03;;;;;;;;;;4961773;29;20490;-81
2021/10/10 14:19:08;;;;;;;7.82;4.90;;;;;;;;;;4963005;29;20035;-81
2021/10/10 14:21:36;;;;;;;7.07;4.30;;;;;;;;;;4960524;29;20031;-81